Uniontown, Pennsylvania
Current Conditions -  °F | °C
As of 2:53 PM on Friday 19 Dec 2014 (Local Time) from KMGW Reporting Station
Overcast Overcast  
Wind Chill: 30°   Ceiling: 2100
Heat Index: 30°   Visibility: 10mi
Dew Point: 20°   Wind: 3mph
Humidity: 66%   Direction: 290°WNW
Pressure: 30.21"   Gusts: NA
Location:  39.9°N, 79.73°W
Report Text: KMGW 191953Z 29003KT 10SM OVC021 M01/M07 A3021 RMK AO2 SLP245 T10111067
Loading
Personal Weather Stations






























Interactive Weather Map New forecast layout! Learn more

10-Day Weather Forecast

Advertisements
Track Severe Weather on mobile